ESGG/GOT METAR and TAF weather

Enter ICAO airport designator
Station Type Date Time Source
ESGG METAR 2024/04/17 18:20 UTC NOAA

ESGG 171820Z 02003KT 350V050 9999 FEW039 05/00 Q1010


Station Type Date Time Source
ESGG Decoded METAR 2024/04/17 18:20 UTC NOAA

Goteborg / Landvetter, Sweden (ESGG) 57-40N 012-18E
Apr 17, 2024 - 02:20 PM EDT / 2024.04.17 1820 UTC
Wind: from the NNE (020 degrees) at 3 MPH (3 KT) (direction variable):0
Visibility: greater than 7 mile(s):0
Sky conditions: mostly clear
Temperature: 41 F (5 C)
Dew Point: 32 F (0 C)
Relative Humidity: 70%
Pressure (altimeter): 29.83 in. Hg (1010 hPa)
ob: ESGG 171820Z 02003KT 350V050 9999 FEW039 05/00 Q1010
cycle: 18

Station Type Date Time Source
ESGG TAF 2024/04/17 18:33 UTC NOAA